Time;durP1;ratioP1;P1;durP2;ratioP2;P2;SDS_P1;SDS_P2;PMS_P1;PMS_P2;Temp;Humidity;BMP_temperature;BMP_pressure;BME280_temperature;BME280_humidity;BME280_pressure;Samples;Min_cycle;Max_cycle;Signal;HPM_P1;HPM_P2
2021/07/11 00:01:15;;;;;;;11.63;10.40;;;18.10;99.90;;;;;;5022137;28;20440;-82
2021/07/11 00:03:42;;;;;;;13.80;11.50;;;18.10;99.90;;;;;;5018005;28;20463;-79
2021/07/11 00:06:10;;;;;;;15.90;13.70;;;18.20;99.90;;;;;;5022411;28;20443;-82
2021/07/11 00:08:38;;;;;;;14.00;12.20;;;18.10;99.90;;;;;;5023289;28;20487;-83
2021/07/11 00:11:05;;;;;;;12.93;11.57;;;18.10;99.90;;;;;;5023120;28;20459;-80
2021/07/11 00:13:33;;;;;;;12.07;10.77;;;18.20;99.90;;;;;;5021697;28;20897;-82
2021/07/11 00:16:00;;;;;;;10.50;9.50;;;18.20;99.90;;;;;;5019737;28;20453;-81
2021/07/11 00:18:27;;;;;;;13.50;11.70;;;18.20;99.90;;;;;;5018009;28;20470;-82
2021/07/11 00:20:54;;;;;;;13.80;12.50;;;18.20;99.90;;;;;;5022855;28;20454;-81
2021/07/11 00:23:21;;;;;;;19.33;14.40;;;18.20;99.90;;;;;;5027538;28;20474;-81
2021/07/11 00:25:50;;;;;;;15.63;10.63;;;18.30;99.90;;;;;;5031495;28;20464;-79
2021/07/11 00:28:17;;;;;;;12.73;10.97;;;18.20;99.90;;;;;;5026093;28;20481;-80
2021/07/11 00:30:44;;;;;;;14.77;13.17;;;18.30;99.90;;;;;;5022138;28;20459;-81
2021/07/11 00:33:11;;;;;;;17.30;13.50;;;18.30;99.90;;;;;;5019486;28;20473;-79
2021/07/11 00:35:38;;;;;;;13.50;12.20;;;18.20;99.90;;;;;;5018720;28;20439;-79
2021/07/11 00:38:05;;;;;;;14.53;12.63;;;18.20;99.90;;;;;;5028345;28;20439;-78
2021/07/11 00:40:32;;;;;;;11.67;10.47;;;18.20;99.90;;;;;;5033705;28;20436;-79
2021/07/11 00:43:24;;;;;;;15.90;11.93;;;18.20;99.90;;;;;;5026878;28;20447;-79
2021/07/11 00:45:53;;;;;;;16.45;12.20;;;18.20;99.90;;;;;;5034486;28;20465;-79
2021/07/11 00:48:20;;;;;;;19.30;16.03;;;18.20;99.90;;;;;;5035324;28;20268;-82
2021/07/11 00:50:47;;;;;;;14.27;12.80;;;18.20;99.90;;;;;;5023595;28;20470;-81
2021/07/11 00:53:15;;;;;;;13.50;11.83;;;18.20;99.90;;;;;;5016665;28;20482;-81
2021/07/11 00:55:42;;;;;;;15.47;13.10;;;18.10;99.90;;;;;;5041625;28;20446;-81
2021/07/11 00:58:10;;;;;;;13.50;12.10;;;18.10;99.90;;;;;;5032021;28;20445;-79
2021/07/11 01:00:39;;;;;;;12.50;11.20;;;18.10;99.90;;;;;;5036137;28;20517;-78
2021/07/11 01:03:10;;;;;;;11.00;9.80;;;18.10;99.90;;;;;;5026110;28;20483;-78
2021/07/11 01:05:38;;;;;;;13.33;11.53;;;18.10;99.90;;;;;;5034801;28;20444;-77
2021/07/11 01:08:09;;;;;;;13.97;11.90;;;18.10;99.90;;;;;;5033314;28;20479;-78
2021/07/11 01:10:40;;;;;;;13.13;11.70;;;18.10;99.90;;;;;;5023816;28;20487;-80
2021/07/11 01:13:11;;;;;;;17.40;11.57;;;18.10;99.90;;;;;;5031070;28;20452;-80
2021/07/11 01:15:40;;;;;;;15.13;12.33;;;18.10;99.90;;;;;;5046227;28;20443;-78
2021/07/11 01:18:09;;;;;;;14.23;12.60;;;18.10;99.90;;;;;;5032395;28;20528;-79
2021/07/11 01:20:40;;;;;;;15.23;11.80;;;18.10;99.90;;;;;;5022516;28;20522;-80
2021/07/11 01:23:10;;;;;;;13.93;11.48;;;18.10;99.90;;;;;;5025897;28;20451;-79
2021/07/11 01:25:42;;;;;;;12.63;11.40;;;18.10;99.90;;;;;;5032833;28;20211;-77
2021/07/11 01:28:12;;;;;;;12.43;11.13;;;18.10;99.90;;;;;;5032390;28;20536;-80
2021/07/11 01:30:41;;;;;;;14.33;12.07;;;18.10;99.90;;;;;;5031555;28;20459;-81
2021/07/11 01:33:10;;;;;;;13.60;12.27;;;18.00;99.90;;;;;;5023672;28;20465;-80
2021/07/11 01:35:39;;;;;;;12.43;11.23;;;18.00;99.90;;;;;;5023347;28;20440;-82
2021/07/11 01:38:08;;;;;;;13.57;11.10;;;17.90;99.90;;;;;;5029217;28;20455;-82
2021/07/11 01:40:36;;;;;;;13.93;11.90;;;18.00;99.90;;;;;;5014645;28;20451;-81
2021/07/11 01:43:06;;;;;;;12.60;11.30;;;18.00;99.90;;;;;;5016684;28;20463;-79
2021/07/11 01:45:34;;;;;;;11.80;10.60;;;18.00;99.90;;;;;;5027650;28;20457;-79
2021/07/11 01:48:01;;;;;;;13.13;11.33;;;18.00;99.90;;;;;;5030303;28;20511;-80
2021/07/11 01:50:29;;;;;;;12.77;11.47;;;18.00;99.90;;;;;;5022802;28;20455;-79
2021/07/11 01:52:56;;;;;;;13.97;11.03;;;18.00;99.90;;;;;;5021228;28;20524;-80
2021/07/11 01:55:25;;;;;;;13.17;10.90;;;18.00;99.90;;;;;;5031543;28;20451;-81
2021/07/11 01:57:53;;;;;;;14.83;12.23;;;18.00;99.90;;;;;;5023528;28;20455;-80
2021/07/11 02:00:22;;;;;;;13.20;10.93;;;18.10;99.90;;;;;;5026217;28;20444;-80
2021/07/11 02:02:50;;;;;;;12.43;11.20;;;18.00;99.90;;;;;;5018588;28;20455;-80
2021/07/11 02:05:18;;;;;;;11.10;10.00;;;18.10;99.90;;;;;;5026113;28;20486;-80
2021/07/11 02:07:46;;;;;;;13.20;10.40;;;18.10;99.90;;;;;;5018637;28;20478;-81
2021/07/11 02:10:15;;;;;;;12.70;10.60;;;18.00;99.90;;;;;;5015987;28;20492;-78
2021/07/11 02:12:48;;;;;;;13.80;12.07;;;18.00;99.90;;;;;;5016676;28;20439;-79
2021/07/11 02:15:15;;;;;;;12.90;11.10;;;18.00;99.90;;;;;;5019553;28;20494;-81
2021/07/11 02:17:47;;;;;;;12.40;11.20;;;18.00;99.90;;;;;;5028961;28;20443;-80
2021/07/11 02:20:15;;;;;;;14.83;11.67;;;18.00;99.90;;;;;;5011667;28;20441;-80
2021/07/11 02:22:44;;;;;;;12.50;11.20;;;18.00;99.90;;;;;;5020822;28;20447;-79
2021/07/11 02:25:15;;;;;;;12.60;10.93;;;18.00;99.90;;;;;;5023505;28;20458;-80
2021/07/11 02:27:44;;;;;;;14.03;10.90;;;18.00;99.90;;;;;;5021339;28;20450;-80
2021/07/11 02:30:15;;;;;;;11.57;10.40;;;18.00;99.90;;;;;;5019792;28;20487;-80
2021/07/11 02:32:45;;;;;;;16.47;11.33;;;18.00;99.90;;;;;;5027863;28;20207;-79
2021/07/11 09:22:39;;;;;;;7.63;6.93;;;37.50;56.60;;;;;;4910162;29;20456;-84
2021/07/11 09:25:29;;;;;;;8.27;7.67;;;37.50;55.50;;;;;;4870473;29;20524;-83
2021/07/11 09:48:31;;;;;;;7.60;7.00;;;36.00;57.50;;;;;;4852895;29;20425;-83
2021/07/11 10:45:27;;;;;;;7.90;7.20;;;34.50;61.30;;;;;;4794664;30;20463;-82
2021/07/11 10:59:09;;;;;;;8.27;7.40;;;31.50;68.60;;;;;;4865044;29;20442;-83
2021/07/11 11:01:38;;;;;;;7.37;6.77;;;31.80;67.80;;;;;;4884199;29;20456;-83
2021/07/11 11:04:16;;;;;;;9.43;6.90;;;32.30;67.90;;;;;;4954458;28;20500;-83
2021/07/11 11:06:43;;;;;;;7.20;6.50;;;32.50;66.60;;;;;;5030335;28;20539;-83
2021/07/11 11:09:10;;;;;;;6.63;6.13;;;32.00;66.40;;;;;;5026779;28;20480;-83
2021/07/11 11:11:37;;;;;;;7.77;6.40;;;31.70;67.90;;;;;;5026897;28;20472;-82
2021/07/11 11:14:06;;;;;;;8.83;8.13;;;31.30;68.80;;;;;;5035926;28;20474;-83
2021/07/11 11:16:47;;;;;;;9.70;7.70;;;31.20;70.10;;;;;;5030816;28;20447;-83
2021/07/11 11:19:16;;;;;;;8.23;7.53;;;31.20;69.50;;;;;;5039039;28;20487;-82
2021/07/11 11:21:43;;;;;;;6.90;6.40;;;31.20;68.70;;;;;;5028712;28;20898;-82
2021/07/11 11:24:10;;;;;;;7.10;6.50;;;31.30;68.90;;;;;;5034558;28;20463;-83
2021/07/11 11:26:37;;;;;;;7.33;6.73;;;31.60;69.10;;;;;;5035679;28;20463;-82
2021/07/11 11:29:06;;;;;;;7.90;7.20;;;31.40;68.50;;;;;;5031133;28;20909;-82
2021/07/11 11:31:35;;;;;;;7.70;7.00;;;31.10;69.30;;;;;;5042813;28;20462;-83
2021/07/11 11:34:06;;;;;;;6.70;6.00;;;31.30;69.40;;;;;;5040015;28;20458;-83
2021/07/11 11:36:37;;;;;;;6.77;6.23;;;31.50;69.40;;;;;;5037519;28;20447;-83
2021/07/11 11:39:07;;;;;;;6.70;6.10;;;31.60;69.00;;;;;;5042887;28;20977;-83
2021/07/11 11:41:37;;;;;;;7.00;6.40;;;31.50;69.20;;;;;;5031402;28;20500;-83
2021/07/11 11:44:12;;;;;;;8.10;7.40;;;31.70;68.30;;;;;;5035405;28;20490;-83
2021/07/11 11:46:40;;;;;;;7.73;6.50;;;31.90;68.60;;;;;;5039419;28;20946;-83
2021/07/11 11:49:11;;;;;;;7.90;7.10;;;31.90;67.70;;;;;;5032458;28;20451;-83
2021/07/11 11:51:44;;;;;;;6.80;6.30;;;31.80;67.50;;;;;;5043197;28;20926;-82
2021/07/11 11:54:11;;;;;;;8.20;7.50;;;31.50;69.10;;;;;;5046240;28;20477;-83
2021/07/11 11:56:41;;;;;;;7.50;6.90;;;31.40;68.70;;;;;;5041319;28;20442;-82
2021/07/11 11:59:08;;;;;;;7.20;6.70;;;31.50;69.40;;;;;;5050127;28;20548;-82
2021/07/11 12:01:36;;;;;;;8.13;7.33;;;31.40;70.10;;;;;;5034378;28;20449;-83
2021/07/11 12:04:13;;;;;;;7.30;6.40;;;31.60;70.80;;;;;;5045927;28;20477;-82
2021/07/11 12:06:42;;;;;;;7.43;6.43;;;31.80;69.40;;;;;;5044496;28;20420;-82
2021/07/11 12:09:10;;;;;;;13.73;6.83;;;31.90;68.80;;;;;;5049048;28;20439;-83
2021/07/11 12:11:38;;;;;;;8.10;7.40;;;31.60;68.60;;;;;;5044100;28;20479;-83
2021/07/11 12:14:12;;;;;;;7.93;7.23;;;31.60;69.10;;;;;;5033727;28;20476;-83
2021/07/11 12:16:40;;;;;;;7.50;6.90;;;31.50;69.40;;;;;;5039021;28;20454;-82
2021/07/11 12:19:09;;;;;;;7.67;6.97;;;31.50;69.20;;;;;;5043797;28;20467;-83
2021/07/11 12:21:44;;;;;;;8.00;7.30;;;31.50;68.60;;;;;;5049854;28;20482;-83
2021/07/11 12:24:13;;;;;;;9.13;6.60;;;31.30;68.90;;;;;;5045744;28;20466;-83
2021/07/11 12:26:44;;;;;;;7.43;6.83;;;31.30;69.30;;;;;;5051933;28;20478;-83
2021/07/11 12:29:14;;;;;;;8.50;7.10;;;31.00;68.60;;;;;;5043311;28;20445;-84
2021/07/11 12:31:42;;;;;;;7.23;6.53;;;30.60;70.00;;;;;;5040159;28;20461;-84
2021/07/11 12:34:12;;;;;;;7.77;7.07;;;30.70;71.20;;;;;;5026205;28;20482;-84
2021/07/11 12:36:50;;;;;;;7.67;6.33;;;30.70;72.00;;;;;;5029227;28;20448;-84
2021/07/11 12:39:18;;;;;;;8.00;7.30;;;30.70;72.60;;;;;;5033305;28;20516;-83
2021/07/11 12:41:45;;;;;;;7.40;6.70;;;30.60;72.90;;;;;;5032753;28;20519;-84
2021/07/11 12:44:14;;;;;;;7.57;6.97;;;30.50;73.80;;;;;;5034102;28;20475;-83
2021/07/11 12:46:41;;;;;;;7.17;6.47;;;30.30;73.00;;;;;;5031000;28;20444;-83
2021/07/11 12:49:12;;;;;;;7.90;7.20;;;30.20;72.30;;;;;;5032294;28;20458;-83
2021/07/11 12:51:46;;;;;;;8.03;7.33;;;30.10;73.20;;;;;;5028934;28;20831;-82
2021/07/11 12:54:16;;;;;;;7.20;6.50;;;30.20;72.80;;;;;;5033624;28;20447;-84
2021/07/11 12:56:52;;;;;;;8.07;7.27;;;30.60;73.10;;;;;;5037838;28;20451;-84
2021/07/11 12:59:27;;;;;;;7.40;6.80;;;30.50;73.90;;;;;;5045351;28;20439;-83
2021/07/11 13:02:04;;;;;;;10.83;7.87;;;30.40;73.00;;;;;;5040485;28;20461;-84
2021/07/11 13:04:32;;;;;;;7.33;6.73;;;30.30;73.20;;;;;;5031243;28;20555;-83
2021/07/11 13:07:06;;;;;;;8.30;7.30;;;29.80;74.10;;;;;;5030794;28;20482;-83
2021/07/11 13:09:34;;;;;;;7.37;6.77;;;29.40;75.40;;;;;;5036851;28;20443;-83
2021/07/11 13:12:14;;;;;;;9.60;8.70;;;29.10;75.80;;;;;;5026270;28;20448;-83
2021/07/11 13:14:52;;;;;;;9.43;8.53;;;28.70;77.60;;;;;;5039697;28;20497;-83
2021/07/11 13:17:19;;;;;;;8.40;7.80;;;28.10;81.70;;;;;;5033992;28;20451;-83
2021/07/11 13:19:46;;;;;;;8.27;7.57;;;27.80;85.30;;;;;;5035171;28;20442;-83
2021/07/11 13:22:15;;;;;;;10.90;9.90;;;27.30;88.80;;;;;;5034150;28;20436;-82
2021/07/11 13:24:42;;;;;;;12.60;11.30;;;26.50;94.70;;;;;;5034859;28;20467;-82
2021/07/11 13:27:09;;;;;;;13.40;12.10;;;25.90;99.90;;;;;;5035494;28;20561;-82
2021/07/11 13:29:36;;;;;;;15.70;14.10;;;25.10;99.90;;;;;;5035620;28;20455;-83
2021/07/11 13:32:04;;;;;;;13.90;10.60;;;24.60;99.90;;;;;;5035854;28;20444;-83
2021/07/11 13:34:32;;;;;;;18.40;10.43;;;24.00;99.90;;;;;;5046999;28;20454;-83
2021/07/11 13:36:59;;;;;;;18.47;15.40;;;23.00;99.90;;;;;;5045930;28;20506;-85
2021/07/11 13:39:28;;;;;;;15.37;12.60;;;21.60;99.90;;;;;;5040845;28;20485;-84
2021/07/11 13:41:56;;;;;;;15.93;13.57;;;21.10;99.90;;;;;;5038365;28;20515;-85
2021/07/11 13:44:24;;;;;;;16.47;13.70;;;20.80;99.90;;;;;;5048185;28;20538;-84
2021/07/11 13:46:51;;;;;;;17.13;15.13;;;20.80;99.90;;;;;;5044470;28;20447;-85
2021/07/11 13:49:18;;;;;;;17.83;14.50;;;20.80;99.90;;;;;;5032664;28;20435;-84
2021/07/11 13:51:45;;;;;;;16.93;15.17;;;20.90;99.90;;;;;;5039978;28;20460;-84
2021/07/11 13:54:12;;;;;;;14.50;13.10;;;21.00;99.90;;;;;;5036521;28;20468;-83
2021/07/11 13:56:41;;;;;;;14.83;12.20;;;21.20;99.90;;;;;;5034015;28;20451;-83
2021/07/11 13:59:10;;;;;;;26.67;12.30;;;21.20;99.90;;;;;;5029752;28;20458;-83
2021/07/11 14:01:37;;;;;;;12.63;11.37;;;21.50;99.90;;;;;;5030358;28;20476;-84
2021/07/11 14:04:05;;;;;;;12.67;11.47;;;21.60;99.90;;;;;;5031608;28;20851;-83
2021/07/11 14:06:32;;;;;;;15.37;13.90;;;22.00;99.90;;;;;;5037357;28;21170;-83
2021/07/11 14:08:59;;;;;;;15.20;12.70;;;22.30;99.90;;;;;;5035466;28;20478;-84
2021/07/11 14:11:26;;;;;;;14.30;12.80;;;22.50;99.90;;;;;;5028595;28;20461;-84
2021/07/11 14:13:55;;;;;;;16.83;13.97;;;22.80;99.90;;;;;;5034870;28;20439;-84
2021/07/11 14:16:22;;;;;;;13.10;11.90;;;23.10;99.90;;;;;;5036378;28;20451;-84
2021/07/11 14:18:49;;;;;;;16.70;15.17;;;23.40;99.90;;;;;;5032666;28;20441;-83
2021/07/11 14:21:17;;;;;;;12.93;11.73;;;23.70;99.90;;;;;;5037790;28;20543;-84
2021/07/11 14:23:44;;;;;;;13.10;11.10;;;23.80;99.90;;;;;;5041461;28;20462;-84
2021/07/11 14:26:11;;;;;;;12.90;11.80;;;24.00;99.90;;;;;;5039922;28;20508;-84
2021/07/11 14:28:38;;;;;;;13.90;12.50;;;24.20;99.90;;;;;;5033250;28;20451;-84
2021/07/11 14:31:07;;;;;;;12.40;10.70;;;24.30;99.90;;;;;;5035959;28;20504;-84
2021/07/11 14:33:34;;;;;;;14.43;11.90;;;24.30;99.90;;;;;;5039839;28;20463;-83
2021/07/11 14:36:01;;;;;;;13.10;12.03;;;24.50;99.90;;;;;;5039970;28;20436;-83
2021/07/11 14:38:29;;;;;;;12.20;11.10;;;24.60;99.90;;;;;;5032914;28;20468;-83
2021/07/11 14:40:56;;;;;;;14.20;12.80;;;24.70;99.90;;;;;;5030227;28;20995;-83
2021/07/11 14:43:23;;;;;;;12.80;11.50;;;24.90;99.90;;;;;;5032614;28;20509;-83
2021/07/11 14:45:51;;;;;;;11.10;10.20;;;24.90;99.90;;;;;;5037098;28;20478;-83
2021/07/11 14:48:21;;;;;;;13.00;11.70;;;24.90;99.90;;;;;;5034476;28;20447;-83
2021/07/11 14:50:49;;;;;;;12.43;11.10;;;24.90;99.90;;;;;;5037327;28;20463;-84
2021/07/11 14:53:17;;;;;;;10.57;9.70;;;25.00;99.90;;;;;;5029451;28;20891;-84
2021/07/11 14:55:44;;;;;;;10.90;9.80;;;25.10;99.90;;;;;;5029442;28;20483;-83
2021/07/11 14:58:11;;;;;;;10.43;9.53;;;25.30;99.90;;;;;;5034718;28;20442;-84
2021/07/11 15:00:38;;;;;;;11.07;10.07;;;25.40;99.90;;;;;;5035697;28;20490;-84
2021/07/11 15:03:05;;;;;;;10.47;9.43;;;25.50;99.90;;;;;;5040509;28;20472;-83
2021/07/11 15:05:34;;;;;;;11.00;10.00;;;25.60;99.90;;;;;;5038230;28;20518;-84
2021/07/11 15:08:01;;;;;;;9.70;8.80;;;25.60;99.90;;;;;;5043119;28;20470;-84
2021/07/11 15:10:30;;;;;;;10.23;9.33;;;25.80;99.90;;;;;;5033927;28;20507;-84
2021/07/11 15:12:58;;;;;;;11.43;10.37;;;26.00;99.90;;;;;;5040837;28;20466;-84
2021/07/11 15:15:25;;;;;;;9.47;8.57;;;26.10;99.90;;;;;;5037653;28;20540;-84
2021/07/11 15:17:53;;;;;;;9.23;8.43;;;26.30;99.90;;;;;;5044380;28;20913;-84
2021/07/11 15:20:20;;;;;;;10.03;9.13;;;26.40;99.90;;;;;;5043210;28;20511;-84
2021/07/11 15:22:48;;;;;;;9.90;9.10;;;26.60;99.90;;;;;;5043043;28;20439;-84
2021/07/11 15:25:15;;;;;;;9.23;8.43;;;26.70;99.90;;;;;;5032673;28;20816;-83
2021/07/11 15:27:42;;;;;;;9.30;8.50;;;26.70;99.90;;;;;;5033275;28;20527;-83
2021/07/11 15:30:11;;;;;;;10.47;9.47;;;26.70;99.90;;;;;;5038946;28;20467;-83
2021/07/11 15:32:38;;;;;;;10.40;9.50;;;26.60;99.90;;;;;;5033300;28;20446;-84
2021/07/11 15:35:06;;;;;;;9.57;8.80;;;26.50;99.90;;;;;;5040403;28;20464;-83
2021/07/11 15:37:33;;;;;;;9.37;8.57;;;26.40;99.90;;;;;;5032481;28;20466;-84
2021/07/11 15:40:02;;;;;;;9.20;8.30;;;26.50;99.90;;;;;;5039767;28;20447;-83
2021/07/11 15:42:29;;;;;;;10.03;9.23;;;26.40;99.90;;;;;;5038539;28;20562;-83
2021/07/11 15:44:56;;;;;;;9.67;8.83;;;26.40;99.90;;;;;;5044656;28;20459;-83
2021/07/11 15:47:23;;;;;;;8.77;8.07;;;26.50;99.90;;;;;;5040920;28;20542;-83
2021/07/11 15:49:50;;;;;;;10.63;9.17;;;26.60;99.90;;;;;;5039173;28;20742;-84
2021/07/11 15:52:17;;;;;;;8.93;8.13;;;26.80;99.90;;;;;;5038248;28;20898;-82
2021/07/11 15:54:44;;;;;;;8.57;7.77;;;26.90;99.90;;;;;;5033682;28;20460;-82
2021/07/11 15:57:13;;;;;;;9.00;8.20;;;27.10;99.90;;;;;;5037234;28;20447;-81
2021/07/11 15:59:40;;;;;;;9.40;8.50;;;27.10;99.90;;;;;;5037177;28;20439;-82
2021/07/11 16:02:07;;;;;;;8.97;8.17;;;27.00;99.90;;;;;;5036598;28;20579;-82
2021/07/11 16:04:34;;;;;;;10.27;9.37;;;27.00;99.90;;;;;;5039887;28;20538;-83
2021/07/11 16:07:01;;;;;;;10.83;8.80;;;27.00;99.90;;;;;;5036418;28;20459;-82
2021/07/11 16:09:28;;;;;;;9.70;8.80;;;26.90;99.90;;;;;;5038233;28;20454;-82
2021/07/11 16:11:55;;;;;;;8.93;8.10;;;26.70;99.90;;;;;;5036276;28;20438;-84
2021/07/11 16:14:24;;;;;;;9.30;8.50;;;26.30;99.90;;;;;;5029330;28;20486;-83
2021/07/11 16:16:51;;;;;;;9.83;9.03;;;26.10;99.90;;;;;;5036076;28;20458;-83
2021/07/11 16:19:18;;;;;;;11.20;8.30;;;26.00;99.90;;;;;;5037660;28;20450;-84
2021/07/11 16:21:46;;;;;;;10.37;9.50;;;25.90;99.90;;;;;;5040066;28;20484;-83
2021/07/11 16:24:14;;;;;;;9.27;8.40;;;25.70;99.90;;;;;;5038011;28;20510;-83
2021/07/11 16:26:41;;;;;;;10.30;9.40;;;25.60;99.90;;;;;;5041889;28;20501;-82
2021/07/11 16:29:08;;;;;;;8.50;7.80;;;25.40;99.90;;;;;;5038464;28;20455;-83
2021/07/11 16:31:37;;;;;;;10.60;9.50;;;25.30;99.90;;;;;;5037195;28;20443;-82
2021/07/11 16:34:04;;;;;;;8.97;8.00;;;25.30;99.90;;;;;;5041553;28;20470;-83
2021/07/11 16:36:31;;;;;;;6.53;5.90;;;25.00;99.90;;;;;;5037714;28;20800;-82
2021/07/11 16:38:58;;;;;;;7.70;6.90;;;24.80;99.90;;;;;;5036008;28;20445;-83
2021/07/11 16:41:28;;;;;;;7.53;6.93;;;24.70;99.90;;;;;;5032219;28;20548;-83
2021/07/11 16:43:55;;;;;;;8.17;7.37;;;24.60;99.90;;;;;;5038385;28;20475;-82
2021/07/11 16:46:22;;;;;;;13.67;7.60;;;24.40;99.90;;;;;;5041515;28;20455;-82
2021/07/11 16:48:50;;;;;;;7.43;6.80;;;24.50;99.90;;;;;;5026573;28;20436;-83
2021/07/11 16:51:18;;;;;;;7.33;6.63;;;24.50;99.90;;;;;;5030046;28;20542;-82
2021/07/11 16:53:47;;;;;;;8.27;7.60;;;24.60;99.90;;;;;;5030557;28;20451;-82
2021/07/11 16:56:14;;;;;;;7.80;7.13;;;24.50;99.90;;;;;;5035919;28;20528;-82
2021/07/11 16:58:41;;;;;;;7.70;7.13;;;24.30;99.90;;;;;;5033682;28;20447;-82
2021/07/11 17:01:08;;;;;;;8.87;8.07;;;24.30;99.90;;;;;;5028890;28;20480;-83
2021/07/11 17:03:35;;;;;;;11.23;8.63;;;24.20;99.90;;;;;;5033215;28;20453;-83
2021/07/11 17:06:03;;;;;;;8.30;7.60;;;24.20;99.90;;;;;;5031554;28;20676;-83
2021/07/11 17:08:31;;;;;;;8.97;7.20;;;24.00;99.90;;;;;;5033735;28;20450;-83
2021/07/11 17:10:59;;;;;;;7.53;6.83;;;24.00;99.90;;;;;;5041580;28;20472;-83
2021/07/11 17:13:26;;;;;;;8.27;7.50;;;23.80;99.90;;;;;;5034720;28;20483;-83
2021/07/11 17:15:53;;;;;;;8.27;7.40;;;23.80;99.90;;;;;;5040093;28;20482;-83
2021/07/11 17:18:22;;;;;;;8.87;7.97;;;23.80;99.90;;;;;;5028542;28;20451;-83
2021/07/11 17:20:49;;;;;;;8.43;7.63;;;23.60;99.90;;;;;;5027218;28;20472;-85
2021/07/11 17:23:18;;;;;;;9.13;8.23;;;23.60;99.90;;;;;;5028441;28;20440;-83
2021/07/11 17:25:45;;;;;;;9.00;8.27;;;23.60;99.90;;;;;;5031581;28;20466;-83
2021/07/11 17:28:12;;;;;;;10.77;9.87;;;23.60;99.90;;;;;;5031216;28;20444;-83
2021/07/11 17:30:40;;;;;;;10.40;9.47;;;23.50;99.90;;;;;;5034138;28;20504;-83
2021/07/11 17:33:07;;;;;;;11.43;10.03;;;23.40;99.90;;;;;;5030035;28;20452;-83
2021/07/11 17:35:34;;;;;;;10.57;9.57;;;23.40;99.90;;;;;;5030085;28;20467;-83
2021/07/11 17:38:01;;;;;;;9.67;8.87;;;23.30;99.90;;;;;;5032221;28;20462;-83
2021/07/11 17:40:30;;;;;;;10.10;9.10;;;23.30;99.90;;;;;;5027907;28;20454;-83
2021/07/11 17:42:57;;;;;;;7.90;7.30;;;23.20;99.90;;;;;;5026620;28;20499;-83
2021/07/11 17:45:25;;;;;;;11.20;10.20;;;23.20;99.90;;;;;;5044543;28;20463;-84
2021/07/11 17:47:52;;;;;;;9.13;8.30;;;23.20;99.90;;;;;;5034962;28;20467;-84
2021/07/11 17:50:19;;;;;;;9.83;8.93;;;23.20;99.90;;;;;;5036495;28;20443;-84
2021/07/11 17:52:46;;;;;;;8.50;7.80;;;23.30;99.90;;;;;;5038915;28;20444;-83
2021/07/11 17:55:15;;;;;;;8.43;7.73;;;23.30;99.90;;;;;;5024835;28;20464;-83
2021/07/11 17:57:44;;;;;;;9.47;8.60;;;23.30;99.90;;;;;;5034776;28;20923;-83
2021/07/11 18:00:14;;;;;;;9.10;8.30;;;23.30;99.90;;;;;;5023438;28;20451;-83
2021/07/11 18:02:42;;;;;;;9.00;8.13;;;23.30;99.90;;;;;;5036818;28;20530;-84
2021/07/11 18:05:11;;;;;;;9.83;8.93;;;23.30;99.90;;;;;;5036108;28;20578;-84
2021/07/11 18:07:39;;;;;;;9.73;8.77;;;23.40;99.90;;;;;;5035669;28;20474;-84
2021/07/11 18:10:09;;;;;;;9.13;8.43;;;23.50;99.90;;;;;;5025515;28;20455;-84
2021/07/11 18:12:39;;;;;;;10.93;9.93;;;23.50;99.90;;;;;;5030878;28;20519;-84
2021/07/11 18:15:09;;;;;;;10.50;9.50;;;23.40;99.90;;;;;;5037563;28;20472;-83
2021/07/11 18:17:36;;;;;;;9.83;8.93;;;23.40;99.90;;;;;;5040242;28;20450;-83
2021/07/11 18:20:06;;;;;;;8.80;7.90;;;23.30;99.90;;;;;;5035239;28;20448;-83
2021/07/11 18:22:33;;;;;;;10.27;9.23;;;23.30;99.90;;;;;;5038943;28;20486;-84
2021/07/11 18:25:00;;;;;;;10.30;9.40;;;23.20;99.90;;;;;;5034490;28;20474;-83
2021/07/11 18:27:28;;;;;;;10.83;9.20;;;23.20;99.90;;;;;;5035706;28;20446;-83
2021/07/11 18:29:55;;;;;;;9.50;8.07;;;23.20;99.90;;;;;;5035791;28;20501;-84
2021/07/11 18:32:23;;;;;;;8.17;7.40;;;23.10;99.90;;;;;;5016060;28;20435;-84
2021/07/11 18:34:50;;;;;;;9.20;8.30;;;23.10;99.90;;;;;;5028882;28;20456;-83
2021/07/11 18:37:19;;;;;;;8.47;7.77;;;22.90;99.90;;;;;;5027285;28;20450;-84
2021/07/11 18:39:46;;;;;;;13.10;11.83;;;22.80;99.90;;;;;;5037827;28;20719;-84
2021/07/11 18:42:14;;;;;;;14.10;12.13;;;22.80;99.90;;;;;;5027294;28;20841;-83
2021/07/11 18:44:41;;;;;;;11.37;10.20;;;22.80;99.90;;;;;;5037721;28;20466;-83
2021/07/11 18:47:10;;;;;;;12.07;10.97;;;22.70;99.90;;;;;;5039695;28;20454;-83
2021/07/11 18:49:39;;;;;;;11.87;10.77;;;22.60;99.90;;;;;;5025576;28;20543;-85
2021/07/11 18:52:07;;;;;;;11.80;10.60;;;22.50;99.90;;;;;;5040602;28;20489;-84
2021/07/11 18:54:35;;;;;;;12.27;11.17;;;22.50;99.90;;;;;;5033492;28;20478;-82
2021/07/11 18:57:04;;;;;;;11.83;10.80;;;22.50;99.90;;;;;;5029697;28;20737;-83
2021/07/11 18:59:31;;;;;;;16.90;11.73;;;22.60;99.90;;;;;;5035957;28;20443;-82
2021/07/11 19:01:58;;;;;;;9.80;9.00;;;22.60;99.90;;;;;;5032506;28;21087;-82
2021/07/11 19:04:26;;;;;;;11.03;10.13;;;22.60;99.90;;;;;;5039764;28;20489;-84
2021/07/11 19:06:54;;;;;;;11.20;10.20;;;22.70;99.90;;;;;;5033467;28;20644;-84
2021/07/11 19:09:21;;;;;;;14.77;12.90;;;22.70;99.90;;;;;;5039231;28;20450;-84
2021/07/11 19:11:48;;;;;;;14.03;12.60;;;22.60;99.90;;;;;;5035125;28;20475;-84
2021/07/11 19:14:16;;;;;;;13.10;11.90;;;22.60;99.90;;;;;;5036159;28;20475;-83
2021/07/11 19:16:44;;;;;;;13.40;12.00;;;22.60;99.90;;;;;;5041872;28;20464;-83
2021/07/11 19:19:11;;;;;;;11.50;10.30;;;22.60;99.90;;;;;;5040562;28;20463;-83
2021/07/11 19:21:38;;;;;;;11.00;10.00;;;22.60;99.90;;;;;;5036976;28;20457;-84
2021/07/11 19:24:07;;;;;;;11.50;10.07;;;22.70;99.90;;;;;;5040670;28;20478;-84
2021/07/11 19:26:34;;;;;;;12.00;10.90;;;22.70;99.90;;;;;;5041944;28;20447;-84
2021/07/11 19:29:01;;;;;;;12.80;11.57;;;22.70;99.90;;;;;;5037892;28;20432;-83
2021/07/11 19:31:29;;;;;;;11.53;10.50;;;22.70;99.90;;;;;;5039847;28;20453;-83
2021/07/11 19:33:57;;;;;;;17.73;15.10;;;22.70;99.90;;;;;;5038066;28;20460;-83
2021/07/11 19:36:24;;;;;;;16.37;14.63;;;22.60;99.90;;;;;;5024934;28;20470;-84
2021/07/11 19:38:51;;;;;;;12.67;11.47;;;22.50;99.90;;;;;;5028129;28;20451;-83
2021/07/11 19:41:19;;;;;;;11.30;10.30;;;22.50;99.90;;;;;;5028249;28;20424;-84
2021/07/11 19:43:46;;;;;;;11.60;10.60;;;22.40;99.90;;;;;;5029750;28;20491;-84
2021/07/11 19:46:14;;;;;;;13.80;12.43;;;22.40;99.90;;;;;;5033005;28;20439;-83
2021/07/11 19:48:41;;;;;;;11.70;10.60;;;22.40;99.90;;;;;;5031462;28;20461;-83
2021/07/11 19:51:08;;;;;;;11.90;10.90;;;22.40;99.90;;;;;;5032042;28;20459;-83
2021/07/11 19:53:35;;;;;;;14.00;12.70;;;22.30;99.90;;;;;;5031099;28;20816;-83
2021/07/11 19:56:05;;;;;;;11.97;10.87;;;22.40;99.90;;;;;;5035542;28;20511;-83
2021/07/11 19:58:34;;;;;;;13.77;12.10;;;22.30;99.90;;;;;;5032468;28;20443;-84
2021/07/11 20:01:01;;;;;;;12.70;11.43;;;22.30;99.90;;;;;;5035285;28;20453;-84
2021/07/11 20:03:28;;;;;;;12.40;11.30;;;22.20;99.90;;;;;;5028664;28;20505;-83
2021/07/11 20:05:55;;;;;;;14.43;13.13;;;22.20;99.90;;;;;;5034065;28;20851;-84
2021/07/11 20:08:22;;;;;;;13.77;12.50;;;22.20;99.90;;;;;;5030208;28;20461;-84
2021/07/11 20:10:50;;;;;;;11.90;10.80;;;22.20;99.90;;;;;;5030992;28;20455;-85
2021/07/11 20:13:17;;;;;;;11.93;10.93;;;22.20;99.90;;;;;;5038685;28;21576;-85
2021/07/11 20:15:45;;;;;;;19.07;11.87;;;22.20;99.90;;;;;;5034714;28;20462;-83
2021/07/11 20:18:12;;;;;;;12.40;11.27;;;22.30;99.90;;;;;;5040427;28;20451;-83
2021/07/11 20:20:40;;;;;;;16.87;15.13;;;22.20;99.90;;;;;;5034468;28;20445;-84
2021/07/11 20:23:07;;;;;;;14.87;12.53;;;22.10;99.90;;;;;;5042793;28;20511;-83
2021/07/11 20:25:35;;;;;;;15.07;13.77;;;22.00;99.90;;;;;;5036208;28;20466;-84
2021/07/11 20:28:02;;;;;;;17.00;14.43;;;21.80;99.90;;;;;;5031997;28;20858;-84
2021/07/11 20:30:29;;;;;;;16.63;14.20;;;21.70;99.90;;;;;;5047657;28;20468;-84
2021/07/11 20:32:58;;;;;;;13.53;12.33;;;21.70;99.90;;;;;;5037685;28;20451;-83
2021/07/11 20:35:25;;;;;;;12.77;11.77;;;21.70;99.90;;;;;;5032939;28;20466;-83
2021/07/11 20:37:52;;;;;;;13.03;11.87;;;21.70;99.90;;;;;;5036647;28;20450;-82
2021/07/11 20:40:19;;;;;;;13.83;12.40;;;21.70;99.90;;;;;;5032423;28;20450;-83
2021/07/11 20:42:46;;;;;;;12.80;11.80;;;21.70;99.90;;;;;;5037959;28;20472;-83
2021/07/11 20:45:14;;;;;;;13.80;12.60;;;21.60;99.90;;;;;;5047908;28;20557;-83
2021/07/11 20:47:43;;;;;;;14.00;12.73;;;21.50;99.90;;;;;;5040227;28;20451;-83
2021/07/11 20:50:13;;;;;;;15.70;14.10;;;21.40;99.90;;;;;;5027914;28;20453;-83
2021/07/11 20:52:40;;;;;;;15.53;14.13;;;21.30;99.90;;;;;;5040133;28;20948;-83
2021/07/11 20:55:10;;;;;;;13.20;12.00;;;21.30;99.90;;;;;;5036219;28;20503;-83